Time;durP1;ratioP1;P1;durP2;ratioP2;P2;SDS_P1;SDS_P2;PMS_P1;PMS_P2;Temp;Humidity;BMP_temperature;BMP_pressure;BME280_temperature;BME280_humidity;BME280_pressure;Samples;Min_cycle;Max_cycle;Signal;HPM_P1;HPM_P2
2021/07/14 00:02:41;;;;;;;10.08;8.48;;;;;;;21.77;100.00;99943.86;713918;1202;114528;-80
2021/07/14 00:22:08;;;;;;;13.40;7.77;;;;;;;21.57;100.00;99922.66;713783;1202;114395;-79
2021/07/14 00:33:11;;;;;;;9.65;8.40;;;;;;;21.57;100.00;99928.00;714049;1202;113969;-81
2021/07/14 00:48:17;;;;;;;9.88;8.05;;;;;;;21.49;100.00;99937.05;713983;1202;114423;-80
2021/07/14 01:03:26;;;;;;;9.28;7.80;;;;;;;21.33;100.00;99954.39;714010;1202;113821;-80
2021/07/14 01:18:41;;;;;;;11.55;8.15;;;;;;;21.04;100.00;99951.25;714896;1200;114735;-81
2021/07/14 01:33:46;;;;;;;10.78;9.38;;;;;;;20.82;100.00;99974.72;714784;1200;114712;-81
2021/07/14 01:48:50;;;;;;;14.13;9.90;;;;;;;20.89;100.00;99956.03;714715;1204;114910;-80
2021/07/14 02:04:30;;;;;;;13.18;9.68;;;;;;;20.65;100.00;99950.34;714944;1200;114409;-81
2021/07/14 02:19:22;;;;;;;13.10;9.90;;;;;;;20.67;100.00;99945.63;714759;1203;114865;-81
2021/07/14 02:34:24;;;;;;;12.28;9.50;;;;;;;20.63;100.00;99920.44;715064;1202;115128;-81
2021/07/14 02:49:27;;;;;;;17.83;11.10;;;;;;;20.49;100.00;99937.48;714508;1202;115372;-81
2021/07/14 03:04:35;;;;;;;12.00;10.48;;;;;;;20.48;100.00;99944.64;714266;1191;114214;-80
2021/07/14 03:19:40;;;;;;;11.60;10.00;;;;;;;20.62;100.00;99942.77;714806;1200;115918;-81
2021/07/14 03:34:42;;;;;;;14.28;9.75;;;;;;;20.63;100.00;99949.75;714789;1203;114086;-80
2021/07/14 03:49:46;;;;;;;11.53;9.53;;;;;;;20.93;100.00;99946.58;714679;1201;114090;-79
2021/07/14 04:04:49;;;;;;;11.63;8.98;;;;;;;21.16;100.00;99929.27;714488;1202;114373;-80
2021/07/14 04:19:51;;;;;;;12.00;8.90;;;;;;;21.60;100.00;99941.73;714772;1200;113968;-79
2021/07/14 04:34:54;;;;;;;13.00;9.10;;;;;;;21.98;100.00;99963.22;716073;1202;115527;-80
2021/07/14 04:49:56;;;;;;;10.33;8.60;;;;;;;22.35;100.00;99956.11;715505;1202;114585;-79
2021/07/14 05:04:58;;;;;;;10.93;9.40;;;;;;;22.84;100.00;99952.70;714529;1203;113816;-79
2021/07/14 05:20:00;;;;;;;10.28;8.33;;;;;;;23.16;100.00;99926.62;714985;1200;114863;-79
2021/07/14 05:35:05;;;;;;;12.38;10.50;;;;;;;23.55;100.00;99944.98;714359;1177;113993;-81
2021/07/14 05:50:08;;;;;;;11.70;9.30;;;;;;;24.20;100.00;99933.41;714089;1205;114167;-80
2021/07/14 06:05:13;;;;;;;12.13;9.13;;;;;;;24.75;100.00;99926.02;716435;1200;114533;-78
2021/07/14 06:20:15;;;;;;;11.95;9.73;;;;;;;25.20;100.00;99917.20;716486;1202;114928;-78
2021/07/14 06:35:20;;;;;;;15.50;12.40;;;;;;;25.91;100.00;99916.78;716813;1205;115158;-78
2021/07/14 06:50:22;;;;;;;9.57;8.57;;;;;;;26.45;100.00;99919.95;717130;1203;114203;-77
2021/07/14 07:05:25;;;;;;;11.53;8.83;;;;;;;27.02;100.00;99916.88;715306;1200;113680;-77
2021/07/14 07:20:29;;;;;;;11.27;9.43;;;;;;;27.80;100.00;99899.52;716460;1177;113877;-83
2021/07/14 07:35:31;;;;;;;11.50;9.88;;;;;;;28.91;100.00;99911.41;715796;1202;114727;-72
2021/07/14 07:50:33;;;;;;;11.07;8.83;;;;;;;29.55;98.85;99910.16;714810;1202;115020;-72
2021/07/14 08:05:35;;;;;;;10.47;9.47;;;;;;;30.61;95.99;99920.20;714683;1202;115056;-72
2021/07/14 08:20:37;;;;;;;17.37;9.77;;;;;;;31.08;93.75;99922.68;714510;1202;115609;-72
2021/07/14 08:35:40;;;;;;;10.45;9.55;;;;;;;31.94;91.59;99938.52;714991;1200;114305;-72
2021/07/14 08:50:44;;;;;;;9.90;8.90;;;;;;;32.24;88.70;99948.27;714482;1200;115030;-72
2021/07/14 09:05:46;;;;;;;10.55;9.45;;;;;;;32.80;86.16;99944.09;714535;1202;113944;-72
2021/07/14 09:20:49;;;;;;;10.93;9.83;;;;;;;32.80;83.53;99952.23;714386;1201;115199;-72
2021/07/14 09:35:53;;;;;;;11.23;9.15;;;;;;;33.68;80.83;99945.47;716085;1200;114493;-81
2021/07/14 09:51:09;;;;;;;11.95;9.30;;;;;;;34.22;77.64;99940.43;717400;1202;114368;-83
2021/07/14 10:06:14;;;;;;;10.57;8.43;;;;;;;34.53;75.31;99944.50;717149;1202;114248;-84
2021/07/14 10:21:17;;;;;;;13.83;8.83;;;;;;;34.65;72.45;99959.19;716101;1205;113769;-78
2021/07/14 10:36:31;;;;;;;10.63;8.50;;;;;;;35.38;71.94;99950.23;714195;1203;114664;-76
2021/07/14 10:51:34;;;;;;;12.15;9.20;;;;;;;35.54;70.66;99949.86;714613;1201;114457;-77
2021/07/14 11:07:18;;;;;;;9.97;9.07;;;;;;;36.23;68.91;99971.26;714595;1202;115263;-77
2021/07/14 11:22:38;;;;;;;10.30;9.15;;;;;;;36.13;67.44;99966.08;715115;1200;114432;-84
2021/07/14 11:38:03;;;;;;;10.40;9.40;;;;;;;36.84;66.64;99978.05;714969;1189;113817;-77
2021/07/14 12:08:37;;;;;;;9.40;8.58;;;;;;;37.67;65.26;99973.49;715124;1202;113899;-85
2021/07/14 12:23:39;;;;;;;10.55;8.90;;;;;;;37.38;65.29;99950.41;715129;1206;113477;-78
2021/07/14 12:38:41;;;;;;;11.55;9.50;;;;;;;37.35;65.07;99957.33;714176;1193;114315;-78
2021/07/14 12:53:55;;;;;;;10.43;9.33;;;;;;;37.56;64.08;99960.19;715527;1203;114009;-88
2021/07/14 13:09:01;;;;;;;13.15;9.98;;;;;;;37.86;63.90;99945.80;715976;1203;113853;-89
2021/07/14 13:24:07;;;;;;;10.70;9.00;;;;;;;38.65;64.90;99931.71;715134;1203;114963;-78
2021/07/14 13:39:20;;;;;;;11.77;9.23;;;;;;;37.84;64.10;99921.50;716183;1202;114375;-82
2021/07/14 13:54:25;;;;;;;16.98;11.05;;;;;;;37.70;64.39;99908.00;716581;1202;114784;-86
2021/07/14 14:09:27;;;;;;;;;;;;;;;37.81;61.65;99922.14;716127;1200;115524;-80
2021/07/14 14:24:31;;;;;;;13.53;10.28;;;;;;;38.27;62.17;99895.88;715700;1202;101677;-83
2021/07/14 14:39:33;;;;;;;14.00;10.58;;;;;;;37.56;62.32;99891.81;714407;1202;114162;-78
2021/07/14 14:54:36;;;;;;;12.37;9.97;;;;;;;37.35;63.65;99890.89;714322;1203;115497;-80
2021/07/14 15:09:41;;;;;;;11.67;10.03;;;;;;;37.66;63.44;99911.73;715088;1206;114700;-80
2021/07/14 15:24:48;;;;;;;13.90;10.58;;;;;;;37.57;63.61;99918.01;717038;1177;113979;-86
2021/07/14 15:39:51;;;;;;;11.93;10.37;;;;;;;37.35;64.39;99920.97;716251;1202;115680;-78
2021/07/14 15:54:53;;;;;;;14.05;11.50;;;;;;;36.92;65.40;99898.80;715188;1202;114004;-80
2021/07/14 16:09:56;;;;;;;15.93;10.80;;;;;;;36.32;67.73;99881.17;715791;1202;115457;-84
2021/07/14 16:24:59;;;;;;;12.23;11.03;;;;;;;35.94;69.71;99893.45;715534;1176;114059;-84
2021/07/14 16:40:02;;;;;;;14.63;12.08;;;;;;;35.18;72.32;99867.03;715700;1202;114819;-84
2021/07/14 16:55:05;;;;;;;17.70;11.68;;;;;;;34.87;74.74;99889.58;715187;1206;113182;-79
2021/07/14 17:10:10;;;;;;;16.13;12.95;;;;;;;34.54;75.89;99869.86;715837;1176;115148;-83
2021/07/14 17:25:14;;;;;;;20.80;17.43;;;;;;;34.19;77.76;99862.13;714814;1202;113998;-80
2021/07/14 17:40:17;;;;;;;16.55;14.75;;;;;;;33.64;80.09;99869.16;714235;1192;114038;-82
2021/07/14 17:55:19;;;;;;;18.18;14.25;;;;;;;33.19;82.02;99871.52;715299;1205;115238;-86
2021/07/14 18:10:21;;;;;;;17.93;13.85;;;;;;;32.90;83.89;99867.08;715819;1201;114475;-84
2021/07/14 18:25:24;;;;;;;17.47;15.67;;;;;;;32.43;84.88;99879.69;715655;1202;114472;-85
2021/07/14 18:40:31;;;;;;;16.53;14.03;;;;;;;31.77;87.54;99822.41;713948;1178;115091;-82
2021/07/14 18:55:34;;;;;;;16.48;13.93;;;;;;;31.35;89.92;99840.94;714388;1200;114069;-81
2021/07/14 19:10:37;;;;;;;17.30;14.83;;;;;;;31.03;91.01;99840.36;714681;1202;113992;-74
2021/07/14 19:25:39;;;;;;;16.80;14.23;;;;;;;30.42;93.96;99819.91;714651;1202;113867;-78
2021/07/14 19:40:41;;;;;;;19.50;15.73;;;;;;;29.95;96.84;99802.27;714462;1177;114017;-76
2021/07/14 19:55:43;;;;;;;19.80;15.23;;;;;;;29.69;98.69;99853.66;714901;1203;114867;-76
2021/07/14 20:10:46;;;;;;;19.28;14.83;;;;;;;29.54;99.50;99897.72;714988;1202;115123;-74
2021/07/14 20:25:48;;;;;;;22.95;15.93;;;;;;;29.26;100.00;99934.14;714745;1177;113972;-75
2021/07/14 20:40:51;;;;;;;18.97;17.00;;;;;;;28.82;100.00;100014.46;714625;1200;114735;-75
2021/07/14 20:55:53;;;;;;;44.98;7.75;;;;;;;25.67;96.65;100117.58;714635;1202;115125;-81
2021/07/14 21:10:55;;;;;;;11.98;3.80;;;;;;;24.13;100.00;99956.84;714999;1200;114637;-82
2021/07/14 21:25:58;;;;;;;8.80;3.33;;;;;;;23.79;100.00;100050.27;714373;1202;115215;-81
2021/07/14 21:41:00;;;;;;;10.45;4.03;;;;;;;23.85;100.00;100051.23;714882;1202;114519;-81
2021/07/14 21:56:02;;;;;;;7.23;3.07;;;;;;;23.02;100.00;100248.77;714656;1202;114913;-82
2021/07/14 22:11:10;;;;;;;9.03;2.98;;;;;;;20.45;100.00;100084.44;716901;1165;114041;-79
2021/07/14 22:26:23;;;;;;;9.43;3.23;;;;;;;21.02;100.00;100206.61;714934;1202;115330;-78
2021/07/14 22:41:26;;;;;;;7.75;4.65;;;;;;;21.36;100.00;100292.77;713905;1201;114588;-78
2021/07/14 22:56:28;;;;;;;9.65;4.58;;;;;;;21.58;100.00;100273.91;714167;1200;114871;-77
2021/07/14 23:11:31;;;;;;;8.43;4.20;;;;;;;21.58;100.00;100180.50;713995;1202;115476;-78
2021/07/14 23:26:34;;;;;;;6.85;3.68;;;;;;;21.41;100.00;100122.21;714156;1205;113972;-78
2021/07/14 23:41:36;;;;;;;18.83;4.23;;;;;;;21.38;100.00;100181.34;714120;1205;115450;-78
2021/07/14 23:56:40;;;;;;;6.30;3.95;;;;;;;21.48;100.00;100118.70;713933;1203;114176;-78
